Time;durP1;ratioP1;P1;durP2;ratioP2;P2;SDS_P1;SDS_P2;PMS_P1;PMS_P2;Temp;Humidity;BMP_temperature;BMP_pressure;BME280_temperature;BME280_humidity;BME280_pressure;Samples;Min_cycle;Max_cycle;Signal;HPM_P1;HPM_P2
2023/09/07 00:01:13;;;;;;;;;;;;;;;21.86;62.08;101952.38;4170899;28;20020;-65
2023/09/07 00:03:15;;;;;;;;;;;;;;;21.84;62.19;101951.78;4171018;28;20027;-65
2023/09/07 00:05:17;;;;;;;;;;;;;;;21.82;62.00;101949.25;4171987;28;20020;-65
2023/09/07 00:07:21;;;;;;;;;;;;;;;21.80;61.86;101947.75;4171003;28;20372;-63
2023/09/07 00:09:23;;;;;;;;;;;;;;;21.77;62.08;101947.16;4171085;28;20016;-63
2023/09/07 00:11:24;;;;;;;;;;;;;;;21.76;61.99;101953.72;4173748;28;20782;-63
2023/09/07 00:13:26;;;;;;;;;;;;;;;21.75;62.21;101953.94;4174578;28;20024;-64
2023/09/07 00:15:27;;;;;;;;;;;;;;;21.72;62.13;101951.63;4174257;28;20024;-63
2023/09/07 00:17:29;;;;;;;;;;;;;;;21.69;62.30;101950.19;4173933;28;19925;-63
2023/09/07 00:19:33;;;;;;;;;;;;;;;21.67;62.38;101955.03;4173988;28;20027;-63
2023/09/07 00:21:36;;;;;;;;;;;;;;;21.66;62.31;101956.13;4174386;28;20015;-63
2023/09/07 00:23:40;;;;;;;;;;;;;;;21.65;62.41;101950.84;4174680;28;20024;-64
2023/09/07 00:25:42;;;;;;;;;;;;;;;21.64;62.49;101957.41;4174451;28;20021;-63
2023/09/07 00:27:43;;;;;;;;;;;;;;;21.61;62.56;101958.69;4173033;28;20028;-64
2023/09/07 00:29:45;;;;;;;;;;;;;;;21.59;62.36;101963.56;4173890;28;20016;-64
2023/09/07 00:31:47;;;;;;;;;;;;;;;21.56;62.24;101956.59;4173543;28;20051;-63
2023/09/07 00:33:49;;;;;;;;;;;;;;;21.53;62.55;101953.44;4174660;28;20016;-63
2023/09/07 00:35:50;;;;;;;;;;;;;;;21.49;62.49;101958.56;4189328;28;20019;-63
2023/09/07 00:37:52;;;;;;;;;;;;;;;21.47;62.54;101948.78;4179982;28;20408;-64
2023/09/07 00:39:58;;;;;;;;;;;;;;;21.43;62.92;101957.47;4188974;28;20023;-64
2023/09/07 00:42:00;;;;;;;;;;;;;;;21.43;62.58;101959.41;4173040;28;20044;-63
2023/09/07 00:44:02;;;;;;;;;;;;;;;21.39;62.53;101948.00;4174360;28;20031;-63
2023/09/07 00:46:04;;;;;;;;;;;;;;;21.36;62.75;101950.34;4174301;28;20017;-64
2023/09/07 00:48:06;;;;;;;;;;;;;;;21.34;62.79;101952.47;4173276;28;20015;-63
2023/09/07 00:50:08;;;;;;;;;;;;;;;21.30;63.00;101953.97;4172402;28;20020;-63
2023/09/07 00:52:11;;;;;;;;;;;;;;;21.28;62.88;101954.19;4173185;28;20016;-63
2023/09/07 00:54:12;;;;;;;;;;;;;;;21.26;62.66;101950.81;4172059;28;20020;-63
2023/09/07 00:56:16;;;;;;;;;;;;;;;21.24;63.08;101952.94;4174171;28;20035;-63
2023/09/07 00:58:17;;;;;;;;;;;;;;;21.23;63.05;101951.25;4172913;28;20351;-63
2023/09/07 01:00:19;;;;;;;;;;;;;;;21.21;63.15;101947.88;4173600;28;20561;-63
2023/09/07 01:02:21;;;;;;;;;;;;;;;21.19;63.12;101939.00;4174031;28;20015;-63
2023/09/07 01:04:22;;;;;;;;;;;;;;;21.18;63.45;101946.41;4174398;28;20020;-64
2023/09/07 01:06:27;;;;;;;;;;;;;;;21.17;63.25;101949.38;4173601;28;20043;-63
2023/09/07 01:08:30;;;;;;;;;;;;;;;21.16;63.33;101937.56;4179579;28;20023;-63
2023/09/07 01:10:32;;;;;;;;;;;;;;;21.16;63.31;101942.19;4173686;28;20027;-63
2023/09/07 01:12:36;;;;;;;;;;;;;;;21.13;63.26;101945.38;4179835;28;20070;-64
2023/09/07 01:14:37;;;;;;;;;;;;;;;21.09;63.50;101939.47;4173564;28;20011;-64
2023/09/07 01:16:39;;;;;;;;;;;;;;;21.06;63.42;101940.78;4174239;28;19936;-63
2023/09/07 01:18:41;;;;;;;;;;;;;;;21.04;63.32;101933.81;4173207;28;20381;-64
2023/09/07 01:20:43;;;;;;;;;;;;;;;21.01;63.60;101943.31;4178880;28;20059;-64
2023/09/07 01:22:47;;;;;;;;;;;;;;;20.97;63.46;101936.59;4187995;28;20012;-63
2023/09/07 01:24:49;;;;;;;;;;;;;;;20.95;63.46;101935.94;4173801;28;20040;-63
2023/09/07 01:26:51;;;;;;;;;;;;;;;20.94;63.65;101941.66;4173331;28;20027;-63
2023/09/07 01:28:52;;;;;;;;;;;;;;;20.92;63.61;101941.88;4172867;28;20044;-63
2023/09/07 01:30:54;;;;;;;;;;;;;;;20.90;63.66;101940.41;4173205;28;20401;-63
2023/09/07 01:32:56;;;;;;;;;;;;;;;20.87;63.50;101942.50;4188266;28;20013;-63
2023/09/07 01:34:59;;;;;;;;;;;;;;;20.86;63.70;101945.47;4171766;28;20020;-63
2023/09/07 01:37:01;;;;;;;;;;;;;;;20.84;63.81;101951.19;4187968;28;20023;-63
2023/09/07 01:39:05;;;;;;;;;;;;;;;20.83;63.73;101944.03;4177954;28;19955;-63
2023/09/07 01:41:08;;;;;;;;;;;;;;;20.81;63.69;101948.88;4171545;28;20363;-64
2023/09/07 01:43:10;;;;;;;;;;;;;;;20.80;63.54;101941.72;4173334;28;20011;-63
2023/09/07 01:45:11;;;;;;;;;;;;;;;20.77;63.50;101939.41;4173463;28;20019;-64
2023/09/07 01:47:13;;;;;;;;;;;;;;;20.75;63.65;101940.66;4188418;28;20042;-63
2023/09/07 01:49:15;;;;;;;;;;;;;;;20.70;63.82;101942.16;4172514;28;20019;-63
2023/09/07 01:51:17;;;;;;;;;;;;;;;20.69;63.98;101945.13;4171746;28;19967;-63
2023/09/07 01:53:19;;;;;;;;;;;;;;;20.67;63.87;101945.34;4173180;28;20007;-64
2023/09/07 01:55:23;;;;;;;;;;;;;;;20.65;63.95;101943.88;4188205;28;20032;-63
2023/09/07 01:57:26;;;;;;;;;;;;;;;20.63;64.14;101937.72;4173272;28;20012;-63
2023/09/07 01:59:30;;;;;;;;;;;;;;;20.62;64.01;101944.25;4170946;28;20645;-64
2023/09/07 02:01:36;;;;;;;;;;;;;;;20.60;64.21;101938.16;4187614;28;20019;-64
2023/09/07 02:03:41;;;;;;;;;;;;;;;20.58;64.15;101946.59;4172928;28;20024;-63
2023/09/07 02:05:44;;;;;;;;;;;;;;;20.57;64.14;101944.91;4171015;28;20162;-63
2023/09/07 02:07:49;;;;;;;;;;;;;;;20.56;64.07;101945.13;4172812;28;19960;-64
2023/09/07 02:09:52;;;;;;;;;;;;;;;20.53;64.11;101944.50;4187209;28;20015;-64
2023/09/07 02:11:56;;;;;;;;;;;;;;;20.53;64.28;101946.38;4173098;28;20024;-64
2023/09/07 02:14:02;;;;;;;;;;;;;;;20.51;64.23;101943.84;4170941;28;20400;-64
2023/09/07 02:16:05;;;;;;;;;;;;;;;20.49;64.06;101942.41;4172950;28;20016;-63
2023/09/07 02:18:07;;;;;;;;;;;;;;;20.48;64.04;101946.19;4187811;28;20391;-63
2023/09/07 02:20:10;;;;;;;;;;;;;;;20.46;64.40;101951.06;4172386;28;19928;-64
2023/09/07 02:22:15;;;;;;;;;;;;;;;20.45;64.30;101946.63;4187300;28;20385;-64
2023/09/07 02:24:16;;;;;;;;;;;;;;;20.41;64.36;101946.19;4178259;28;20015;-64
2023/09/07 02:26:18;;;;;;;;;;;;;;;20.40;64.55;101943.69;4178251;28;20386;-64
2023/09/07 02:28:21;;;;;;;;;;;;;;;20.38;64.29;101943.06;4171992;28;20011;-63
2023/09/07 02:30:24;;;;;;;;;;;;;;;20.37;64.44;101941.34;4172250;28;20048;-63
2023/09/07 02:32:26;;;;;;;;;;;;;;;20.35;64.37;101936.91;4171888;28;20377;-64
2023/09/07 02:34:28;;;;;;;;;;;;;;;20.35;64.25;101936.09;4172057;28;20011;-64
2023/09/07 02:36:30;;;;;;;;;;;;;;;20.33;64.41;101930.81;4171706;28;20053;-64
2023/09/07 02:38:33;;;;;;;;;;;;;;;20.31;64.27;101949.41;4172472;28;20023;-64
2023/09/07 02:40:40;;;;;;;;;;;;;;;20.30;64.46;101941.38;4178100;28;20035;-64
2023/09/07 02:42:43;;;;;;;;;;;;;;;20.27;64.57;101947.28;4171778;28;20036;-64
2023/09/07 02:44:46;;;;;;;;;;;;;;;20.25;64.46;101942.00;4176888;28;20020;-64
2023/09/07 02:46:48;;;;;;;;;;;;;;;20.24;64.59;101947.72;4172279;28;20031;-63
2023/09/07 02:48:51;;;;;;;;;;;;;;;20.22;64.71;101944.31;4186565;28;20355;-64
2023/09/07 02:50:53;;;;;;;;;;;;;;;20.21;64.57;101948.13;4171965;28;20339;-64
2023/09/07 02:52:59;;;;;;;;;;;;;;;20.20;64.85;101940.94;4170298;28;20043;-63
2023/09/07 02:55:04;;;;;;;;;;;;;;;20.19;64.76;101942.84;4171365;28;20019;-64
2023/09/07 02:57:06;;;;;;;;;;;;;;;20.18;64.78;101952.13;4171539;28;20011;-64
2023/09/07 02:59:08;;;;;;;;;;;;;;;20.16;64.64;101951.50;4177807;28;20019;-64
2023/09/07 03:01:13;;;;;;;;;;;;;;;20.16;64.63;101955.09;4187165;28;19978;-64
2023/09/07 03:03:15;;;;;;;;;;;;;;;20.14;64.72;101954.47;4187107;28;20051;-64
2023/09/07 03:05:18;;;;;;;;;;;;;;;20.14;64.65;101951.72;4171135;28;20025;-64
2023/09/07 03:07:21;;;;;;;;;;;;;;;20.12;64.75;101952.97;4170406;28;20023;-63
2023/09/07 03:09:23;;;;;;;;;;;;;;;20.11;64.92;101952.13;4171514;28;20024;-63
2023/09/07 03:11:25;;;;;;;;;;;;;;;20.09;64.95;101951.47;4176992;28;20028;-65
2023/09/07 03:13:27;;;;;;;;;;;;;;;20.07;64.76;101948.13;4171690;28;20011;-63
2023/09/07 03:15:29;;;;;;;;;;;;;;;20.05;64.74;101950.25;4172077;28;20007;-64
2023/09/07 03:17:32;;;;;;;;;;;;;;;20.05;64.91;101954.88;4177299;28;20442;-63
2023/09/07 03:19:34;;;;;;;;;;;;;;;20.05;64.88;101954.88;4186708;28;20024;-63
2023/09/07 03:21:36;;;;;;;;;;;;;;;20.03;65.04;101952.34;4170475;28;21010;-63
2023/09/07 03:23:44;;;;;;;;;;;;;;;20.02;64.99;101955.31;4169094;28;20409;-63
2023/09/07 03:25:46;;;;;;;;;;;;;;;20.01;65.20;101959.09;4168951;28;20020;-63
2023/09/07 03:27:48;;;;;;;;;;;;;;;19.98;65.10;101950.25;4187153;28;20038;-61
2023/09/07 03:29:52;;;;;;;;;;;;;;;19.98;65.22;101952.13;4177178;28;20032;-64
2023/09/07 03:31:55;;;;;;;;;;;;;;;19.96;65.21;101949.59;4177796;28;20027;-64
2023/09/07 03:33:59;;;;;;;;;;;;;;;19.94;65.13;101954.44;4171676;28;20067;-64
2023/09/07 03:36:01;;;;;;;;;;;;;;;19.92;64.93;101952.97;4172252;28;20023;-64
2023/09/07 03:38:05;;;;;;;;;;;;;;;19.89;65.36;101951.50;4186797;28;20027;-64
2023/09/07 03:40:09;;;;;;;;;;;;;;;19.88;65.21;101952.53;4171160;28;20032;-64
2023/09/07 03:42:12;;;;;;;;;;;;;;;19.86;65.05;101954.66;4170379;28;19932;-64
2023/09/07 03:44:15;;;;;;;;;;;;;;;19.86;65.05;101953.81;4177715;28;20040;-64
2023/09/07 03:46:19;;;;;;;;;;;;;;;19.84;65.26;101955.91;4176998;28;20015;-64
2023/09/07 03:48:22;;;;;;;;;;;;;;;19.83;65.25;101956.97;4171099;28;20490;-64
2023/09/07 03:50:24;;;;;;;;;;;;;;;19.82;65.33;101952.56;4170364;28;20023;-63
2023/09/07 03:52:27;;;;;;;;;;;;;;;19.78;65.31;101947.47;4186995;28;20027;-63
2023/09/07 03:54:31;;;;;;;;;;;;;;;19.78;64.88;101952.09;4169528;28;20020;-63
2023/09/07 03:56:35;;;;;;;;;;;;;;;19.76;65.19;101949.56;4177584;28;20035;-62
2023/09/07 03:58:37;;;;;;;;;;;;;;;19.75;65.01;101956.09;4177252;28;20697;-63
2023/09/07 04:00:39;;;;;;;;;;;;;;;19.74;65.32;101957.13;4170758;28;20015;-63
2023/09/07 04:02:42;;;;;;;;;;;;;;;19.72;65.38;101956.50;4170915;28;19933;-63
2023/09/07 04:04:49;;;;;;;;;;;;;;;19.71;65.50;101949.31;4176626;28;20623;-63
2023/09/07 04:06:52;;;;;;;;;;;;;;;19.71;65.29;101956.72;4171329;28;20016;-62
2023/09/07 04:08:54;;;;;;;;;;;;;;;19.70;65.31;101953.16;4176430;28;20020;-64
2023/09/07 04:10:56;;;;;;;;;;;;;;;19.69;65.46;101962.41;4170330;28;20028;-64
2023/09/07 04:12:58;;;;;;;;;;;;;;;19.68;65.17;101957.13;4170961;28;20004;-64
2023/09/07 04:14:59;;;;;;;;;;;;;;;19.64;65.38;101964.94;4186898;28;20020;-63
2023/09/07 04:17:02;;;;;;;;;;;;;;;19.62;65.55;101962.41;4170432;28;20027;-64
2023/09/07 04:19:04;;;;;;;;;;;;;;;19.59;65.69;101961.94;4170523;28;20031;-64
2023/09/07 04:21:06;;;;;;;;;;;;;;;19.58;65.80;101963.84;4169686;28;20016;-62
2023/09/07 04:23:10;;;;;;;;;;;;;;;19.57;65.76;101969.53;4168352;28;20499;-63
2023/09/07 04:25:12;;;;;;;;;;;;;;;19.57;65.67;101964.91;4170201;28;19996;-63
2023/09/07 04:27:14;;;;;;;;;;;;;;;19.57;65.81;101966.81;4171072;28;20012;-63
2023/09/07 04:29:16;;;;;;;;;;;;;;;19.56;65.85;101971.44;4176536;28;20028;-62
2023/09/07 04:31:18;;;;;;;;;;;;;;;19.55;65.75;101977.97;4176891;28;20028;-62
2023/09/07 04:33:20;;;;;;;;;;;;;;;19.54;65.79;101973.53;4175167;28;20051;-62
2023/09/07 04:35:22;;;;;;;;;;;;;;;19.54;65.75;101975.44;4171023;28;20020;-63
2023/09/07 04:37:24;;;;;;;;;;;;;;;19.53;65.81;101977.34;4170172;28;20023;-63
2023/09/07 04:39:27;;;;;;;;;;;;;;;19.53;65.83;101977.34;4185636;28;20032;-64
2023/09/07 04:41:30;;;;;;;;;;;;;;;19.52;65.88;101972.06;4176174;28;20027;-63
2023/09/07 04:43:32;;;;;;;;;;;;;;;19.53;66.01;101977.34;4184804;28;20059;-63
2023/09/07 04:45:35;;;;;;;;;;;;;;;19.51;65.82;101971.19;4167243;28;20466;-64
2023/09/07 04:47:37;;;;;;;;;;;;;;;19.50;65.81;101968.66;4172446;28;20367;-63
2023/09/07 04:49:40;;;;;;;;;;;;;;;19.49;65.86;101972.47;4170254;28;20023;-62
2023/09/07 04:51:42;;;;;;;;;;;;;;;19.49;66.14;101977.97;4170054;28;19970;-63
2023/09/07 04:53:44;;;;;;;;;;;;;;;19.49;66.21;101978.78;4185875;28;20079;-63
2023/09/07 04:55:48;;;;;;;;;;;;;;;19.49;66.12;101975.22;4176898;28;20036;-62
2023/09/07 04:57:50;;;;;;;;;;;;;;;19.50;66.12;101979.63;4171432;28;20027;-63
2023/09/07 04:59:55;;;;;;;;;;;;;;;19.50;66.33;101985.09;4173496;28;20019;-63
2023/09/07 05:02:00;;;;;;;;;;;;;;;19.50;66.42;101976.88;4174298;28;20012;-63
2023/09/07 05:04:03;;;;;;;;;;;;;;;19.51;66.22;101975.84;4174470;28;20028;-63
2023/09/07 05:06:05;;;;;;;;;;;;;;;19.51;66.44;101975.84;4188518;28;20387;-63
2023/09/07 05:08:07;;;;;;;;;;;;;;;19.51;66.59;101976.69;4174128;28;20016;-63
2023/09/07 05:10:12;;;;;;;;;;;;;;;19.52;66.55;101975.63;4174344;28;20359;-62
2023/09/07 05:12:18;;;;;;;;;;;;;;;19.53;66.63;101977.34;4156295;28;20060;-62
2023/09/07 05:14:20;;;;;;;;;;;;;;;19.54;66.59;101976.28;4173162;28;20654;-62
2023/09/07 05:16:22;;;;;;;;;;;;;;;19.55;66.56;101975.22;4172681;28;20020;-63
2023/09/07 05:18:24;;;;;;;;;;;;;;;19.55;66.54;101991.66;4177482;28;20007;-63
2023/09/07 05:20:26;;;;;;;;;;;;;;;19.56;66.64;101984.28;4187577;28;20059;-63
2023/09/07 05:22:28;;;;;;;;;;;;;;;19.56;66.46;101989.75;4174946;28;20389;-63
2023/09/07 05:24:30;;;;;;;;;;;;;;;19.58;66.63;101987.69;4174479;28;19951;-63
2023/09/07 05:26:32;;;;;;;;;;;;;;;19.59;66.43;101992.09;4174060;28;20031;-63
2023/09/07 05:28:40;;;;;;;;;;;;;;;19.61;66.56;101988.09;4173520;28;20234;-63
2023/09/07 05:30:41;;;;;;;;;;;;;;;19.62;66.74;101987.06;4188291;28;20027;-64
2023/09/07 05:32:44;;;;;;;;;;;;;;;19.66;66.62;101981.16;4162534;28;20000;-63
2023/09/07 05:34:46;;;;;;;;;;;;;;;19.68;66.76;101993.59;4187153;28;20016;-62
2023/09/07 05:36:48;;;;;;;;;;;;;;;19.71;66.77;101993.19;4173845;28;20048;-62
2023/09/07 05:38:50;;;;;;;;;;;;;;;19.73;66.65;101993.84;4172492;28;20020;-62
2023/09/07 05:40:54;;;;;;;;;;;;;;;19.77;66.70;101989.66;4179030;28;20023;-63
2023/09/07 05:42:56;;;;;;;;;;;;;;;19.79;66.50;101990.28;4179308;28;20016;-62
2023/09/07 05:44:59;;;;;;;;;;;;;;;19.82;66.68;101999.97;4179964;28;19932;-64
2023/09/07 05:47:02;;;;;;;;;;;;;;;19.85;66.71;102001.47;4187387;28;20024;-62
2023/09/07 05:49:04;;;;;;;;;;;;;;;19.88;66.63;101999.16;4188459;28;20035;-62
2023/09/07 05:51:07;;;;;;;;;;;;;;;19.90;66.91;101999.78;4186888;28;20023;-62
2023/09/07 05:53:09;;;;;;;;;;;;;;;19.93;66.69;102007.59;4188321;28;20494;-62
2023/09/07 05:55:11;;;;;;;;;;;;;;;19.97;66.73;101999.81;4186775;28;20011;-63
2023/09/07 05:57:14;;;;;;;;;;;;;;;20.01;66.56;102001.06;4169913;28;20032;-64
2023/09/07 05:59:16;;;;;;;;;;;;;;;20.04;66.68;102003.38;4169984;28;20059;-65
2023/09/07 06:01:18;;;;;;;;;;;;;;;20.08;66.28;102006.56;4170700;28;20028;-64
2023/09/07 06:03:20;;;;;;;;;;;;;;;20.12;66.23;102000.44;4177717;28;20970;-64
2023/09/07 06:05:22;;;;;;;;;;;;;;;20.17;66.17;102008.03;4178818;28;20427;-64
2023/09/07 06:07:24;;;;;;;;;;;;;;;20.20;66.04;102009.53;4188004;28;20458;-62
2023/09/07 06:09:27;;;;;;;;;;;;;;;20.25;65.95;102012.47;4178925;28;20027;-64
2023/09/07 06:11:30;;;;;;;;;;;;;;;20.29;65.70;102013.75;4172024;28;20019;-63
2023/09/07 06:13:32;;;;;;;;;;;;;;;20.33;65.59;102015.03;4178915;28;20425;-64
2023/09/07 06:15:34;;;;;;;;;;;;;;;20.36;65.45;102009.13;4173397;28;20028;-62
2023/09/07 06:17:38;;;;;;;;;;;;;;;20.40;65.23;102009.53;4173151;28;20024;-64
2023/09/07 06:19:41;;;;;;;;;;;;;;;20.43;65.32;102015.44;4171282;28;20375;-63
2023/09/07 06:21:43;;;;;;;;;;;;;;;20.47;65.32;102013.09;4188084;28;20012;-64
2023/09/07 06:23:51;;;;;;;;;;;;;;;20.52;65.00;102016.06;4188461;28;20055;-61
2023/09/07 06:25:52;;;;;;;;;;;;;;;20.56;64.89;102011.00;4162183;28;19925;-62
2023/09/07 06:27:55;;;;;;;;;;;;;;;20.59;64.65;102014.13;4176937;28;20015;-62
2023/09/07 06:29:56;;;;;;;;;;;;;;;20.63;64.69;102009.09;4170313;28;20020;-63
2023/09/07 06:31:59;;;;;;;;;;;;;;;20.67;64.85;102010.38;4167609;28;20031;-62
2023/09/07 06:34:02;;;;;;;;;;;;;;;20.71;64.52;102014.38;4169971;28;20020;-63
2023/09/07 06:36:05;;;;;;;;;;;;;;;20.74;64.64;102011.22;4170957;28;20387;-63
2023/09/07 06:38:07;;;;;;;;;;;;;;;20.78;64.55;102011.63;4178177;28;20024;-62
2023/09/07 06:40:10;;;;;;;;;;;;;;;20.81;64.65;102014.75;4187505;28;20016;-63
2023/09/07 06:42:15;;;;;;;;;;;;;;;20.85;64.22;102013.28;4188052;28;20366;-62
2023/09/07 06:44:27;;;;;;;;;;;;;;;20.89;64.21;102013.69;4188182;28;19929;-63
2023/09/07 06:46:29;;;;;;;;;;;;;;;20.92;64.08;102015.19;4178778;28;19925;-62
2023/09/07 06:48:32;;;;;;;;;;;;;;;20.95;63.73;102012.84;4187163;28;20023;-64
2023/09/07 06:50:35;;;;;;;;;;;;;;;20.99;63.66;102022.34;4171261;28;20391;-65
2023/09/07 06:52:37;;;;;;;;;;;;;;;21.03;63.39;102017.25;4177544;28;20458;-64
2023/09/07 06:54:39;;;;;;;;;;;;;;;21.06;63.05;102016.81;4171426;28;20586;-62
2023/09/07 06:56:42;;;;;;;;;;;;;;;21.10;62.99;102014.47;4187365;28;19996;-61
2023/09/07 06:58:44;;;;;;;;;;;;;;;21.14;63.06;102015.75;4187143;28;20450;-63
2023/09/07 07:00:47;;;;;;;;;;;;;;;21.17;62.73;102021.63;4172589;28;20023;-64
2023/09/07 07:02:50;;;;;;;;;;;;;;;21.21;62.54;102020.16;4187467;28;20024;-61
2023/09/07 07:04:51;;;;;;;;;;;;;;;21.24;62.49;102013.41;4187549;28;20035;-62
2023/09/07 07:06:55;;;;;;;;;;;;;;;21.29;62.39;102015.50;4170473;28;20445;-62
2023/09/07 07:08:57;;;;;;;;;;;;;;;21.33;62.40;102013.97;4172236;28;20011;-63
2023/09/07 07:10:58;;;;;;;;;;;;;;;21.36;62.11;102019.03;4186570;28;20023;-64
2023/09/07 07:13:00;;;;;;;;;;;;;;;21.39;62.23;102021.34;4186567;28;20015;-66
2023/09/07 07:15:07;;;;;;;;;;;;;;;21.44;61.87;102021.53;4177980;28;20027;-62
2023/09/07 07:17:11;;;;;;;;;;;;;;;21.47;61.78;102021.09;4186264;28;20011;-63
2023/09/07 07:19:16;;;;;;;;;;;;;;;21.51;61.67;102018.81;4185047;28;20019;-63
2023/09/07 07:21:18;;;;;;;;;;;;;;;21.55;61.68;102017.28;4169564;28;20020;-63
2023/09/07 07:23:24;;;;;;;;;;;;;;;21.59;61.72;102021.28;4161066;28;19969;-63
2023/09/07 07:25:26;;;;;;;;;;;;;;;21.63;61.32;102030.78;4169790;28;20004;-63
2023/09/07 07:27:28;;;;;;;;;;;;;;;21.67;61.53;102025.69;4185971;28;19928;-63
2023/09/07 07:29:30;;;;;;;;;;;;;;;21.70;61.26;102030.75;4170471;28;20033;-63
2023/09/07 07:31:32;;;;;;;;;;;;;;;21.73;61.07;102024.81;4186315;28;20517;-63
2023/09/07 07:33:34;;;;;;;;;;;;;;;21.77;61.29;102029.66;4169187;28;20019;-63
2023/09/07 07:35:37;;;;;;;;;;;;;;;21.81;60.93;102030.03;4171224;28;20804;-63
2023/09/07 07:37:39;;;;;;;;;;;;;;;21.84;60.82;102035.09;4186093;28;20055;-63
2023/09/07 07:39:43;;;;;;;;;;;;;;;21.88;60.97;102036.34;4185770;28;20016;-63
2023/09/07 07:41:47;;;;;;;;;;;;;;;21.91;60.77;102027.66;4177391;28;20024;-63
2023/09/07 07:43:49;;;;;;;;;;;;;;;21.95;60.93;102034.38;4176956;28;20036;-63
2023/09/07 07:45:53;;;;;;;;;;;;;;;21.99;60.40;102025.69;4170848;28;20016;-63
2023/09/07 07:47:55;;;;;;;;;;;;;;;22.02;60.26;102025.25;4177125;28;20023;-64
2023/09/07 07:49:56;;;;;;;;;;;;;;;22.06;60.38;102032.00;4177016;28;20027;-63
2023/09/07 07:51:58;;;;;;;;;;;;;;;22.09;60.22;102023.31;4177265;28;20028;-63
2023/09/07 07:54:00;;;;;;;;;;;;;;;22.12;60.22;102028.38;4177570;28;20028;-63
2023/09/07 07:56:04;;;;;;;;;;;;;;;22.16;60.05;102026.00;4183869;28;20012;-62
2023/09/07 07:58:07;;;;;;;;;;;;;;;22.18;59.85;102024.72;4177415;28;20015;-63
2023/09/07 08:00:10;;;;;;;;;;;;;;;22.22;59.93;102030.59;4185600;28;20024;-63
2023/09/07 08:02:25;;;;;;;;;;;;;;;22.25;59.89;102024.66;4168615;28;20052;-63
2023/09/07 08:04:27;;;;;;;;;;;;;;;22.28;59.73;102025.03;4186362;28;20063;-62
2023/09/07 08:06:30;;;;;;;;;;;;;;;22.32;59.77;102031.00;4185648;28;20036;-63
2023/09/07 08:08:32;;;;;;;;;;;;;;;22.36;59.48;102034.13;4185623;28;20028;-62
2023/09/07 08:10:33;;;;;;;;;;;;;;;22.40;59.44;102030.72;4186673;28;20031;-62
2023/09/07 08:12:37;;;;;;;;;;;;;;;22.43;59.32;102029.41;4186219;28;20012;-63
2023/09/07 08:14:39;;;;;;;;;;;;;;;22.45;59.48;102028.13;4170886;28;20024;-63
2023/09/07 08:16:41;;;;;;;;;;;;;;;22.48;59.38;102029.59;4170314;28;20442;-62
2023/09/07 08:18:43;;;;;;;;;;;;;;;22.52;58.91;102030.78;4185459;28;20027;-63
2023/09/07 08:20:47;;;;;;;;;;;;;;;22.54;58.95;102030.56;4185663;28;20020;-63
2023/09/07 08:22:49;;;;;;;;;;;;;;;22.58;59.20;102026.31;4175253;28;20024;-62
2023/09/07 08:24:52;;;;;;;;;;;;;;;22.61;58.81;102034.13;4176896;28;20015;-62
2023/09/07 08:26:55;;;;;;;;;;;;;;;22.64;58.62;102030.91;4176981;28;20011;-63
2023/09/07 08:28:59;;;;;;;;;;;;;;;22.67;58.57;102031.28;4168449;28;19947;-63
2023/09/07 08:31:01;;;;;;;;;;;;;;;22.70;58.62;102030.00;4170814;28;20455;-62
2023/09/07 08:33:05;;;;;;;;;;;;;;;22.74;58.66;102033.13;4172476;28;20028;-63
2023/09/07 08:35:09;;;;;;;;;;;;;;;22.76;58.51;102031.84;4174049;28;20024;-63
2023/09/07 08:37:11;;;;;;;;;;;;;;;22.80;58.20;102027.56;4173553;28;20024;-62
2023/09/07 08:39:13;;;;;;;;;;;;;;;22.83;58.26;102024.34;4174272;28;20020;-63
2023/09/07 08:41:15;;;;;;;;;;;;;;;22.87;58.00;102027.50;4174153;28;20028;-63
2023/09/07 08:43:18;;;;;;;;;;;;;;;22.91;58.14;102016.88;4174272;28;20036;-63
2023/09/07 08:45:21;;;;;;;;;;;;;;;22.95;58.13;102026.38;4173644;28;20016;-63
2023/09/07 08:47:23;;;;;;;;;;;;;;;22.98;57.76;102028.66;4174077;28;20490;-63
2023/09/07 08:49:25;;;;;;;;;;;;;;;23.01;57.86;102028.22;4174064;28;20941;-63
2023/09/07 08:51:27;;;;;;;;;;;;;;;23.03;57.34;102024.13;4172940;28;20019;-63
2023/09/07 08:53:30;;;;;;;;;;;;;;;23.09;57.42;102024.31;4174049;28;20011;-63
2023/09/07 08:55:31;;;;;;;;;;;;;;;23.11;57.31;102025.78;4174134;28;20024;-63
2023/09/07 08:57:33;;;;;;;;;;;;;;;23.16;56.96;102022.34;4174705;28;19925;-62
2023/09/07 08:59:36;;;;;;;;;;;;;;;23.19;57.18;102025.47;4173718;28;20028;-63
2023/09/07 09:01:39;;;;;;;;;;;;;;;23.23;57.02;102027.75;4173992;28;20047;-63
2023/09/07 09:03:40;;;;;;;;;;;;;;;23.25;56.79;102025.63;4174457;28;20049;-63
2023/09/07 09:05:42;;;;;;;;;;;;;;;23.29;56.54;102024.94;4174105;28;19971;-62
2023/09/07 09:07:44;;;;;;;;;;;;;;;23.32;56.52;102024.47;4173743;28;20047;-61
2023/09/07 09:09:46;;;;;;;;;;;;;;;23.33;56.20;102023.38;4173903;28;20134;-63
2023/09/07 09:11:48;;;;;;;;;;;;;;;23.35;56.02;102024.00;4173085;28;20023;-62
2023/09/07 09:13:50;;;;;;;;;;;;;;;23.38;56.25;102018.00;4173059;28;20381;-62
2023/09/07 09:15:52;;;;;;;;;;;;;;;23.42;56.07;102017.53;4173297;28;20016;-62
2023/09/07 09:17:55;;;;;;;;;;;;;;;23.44;55.81;102009.91;4173917;28;20627;-63
2023/09/07 09:19:57;;;;;;;;;;;;;;;23.46;55.97;102016.84;4172634;28;20032;-63
2023/09/07 09:21:59;;;;;;;;;;;;;;;23.48;55.61;102013.84;4172442;28;20148;-63
2023/09/07 09:24:02;;;;;;;;;;;;;;;23.50;55.74;102011.75;4173337;28;20023;-62
2023/09/07 09:26:04;;;;;;;;;;;;;;;23.52;55.44;102009.56;4172842;28;20027;-62
2023/09/07 09:28:06;;;;;;;;;;;;;;;23.53;55.24;102009.34;4173199;28;20023;-62
2023/09/07 09:30:09;;;;;;;;;;;;;;;23.55;55.11;102009.13;4173317;28;19929;-62
2023/09/07 09:32:11;;;;;;;;;;;;;;;23.57;55.06;101998.69;4172661;28;20016;-63
2023/09/07 09:34:14;;;;;;;;;;;;;;;23.59;54.97;102007.59;4173359;28;20007;-63
2023/09/07 09:36:15;;;;;;;;;;;;;;;23.61;54.90;102004.59;4172779;28;20023;-63
2023/09/07 09:38:17;;;;;;;;;;;;;;;23.62;54.93;102001.59;4173045;28;20315;-63
2023/09/07 09:40:19;;;;;;;;;;;;;;;23.63;55.14;101997.75;4173577;28;20502;-63
2023/09/07 09:42:21;;;;;;;;;;;;;;;23.65;54.74;101995.63;4172702;28;20024;-63
2023/09/07 09:44:25;;;;;;;;;;;;;;;23.66;54.79;101994.53;4172669;28;20047;-63
2023/09/07 09:46:27;;;;;;;;;;;;;;;23.67;54.78;101998.97;4172423;28;20024;-63
2023/09/07 09:48:29;;;;;;;;;;;;;;;23.69;54.82;101991.28;4172544;28;20008;-63
2023/09/07 09:50:34;;;;;;;;;;;;;;;23.72;54.36;101992.75;4171703;28;19975;-63
2023/09/07 09:52:36;;;;;;;;;;;;;;;23.72;54.31;101990.81;4172120;28;20019;-62
2023/09/07 09:54:38;;;;;;;;;;;;;;;23.73;54.51;101983.38;4187987;28;20015;-63
2023/09/07 09:56:39;;;;;;;;;;;;;;;23.74;54.08;101980.38;4173033;28;20015;-63
2023/09/07 09:58:41;;;;;;;;;;;;;;;23.76;54.52;101985.66;4172122;28;20050;-63
2023/09/07 10:00:44;;;;;;;;;;;;;;;23.78;54.35;101980.78;4172285;28;20012;-63
2023/09/07 10:02:47;;;;;;;;;;;;;;;23.79;54.08;101987.97;4188066;28;20011;-63
2023/09/07 10:04:49;;;;;;;;;;;;;;;23.81;53.76;101976.69;4171875;28;20013;-64
2023/09/07 10:06:54;;;;;;;;;;;;;;;23.83;53.59;101977.31;4172806;28;20019;-64
2023/09/07 10:08:58;;;;;;;;;;;;;;;23.84;53.34;101977.13;4172398;28;20031;-63
2023/09/07 10:11:00;;;;;;;;;;;;;;;23.86;53.45;101974.94;4172498;28;20126;-63
2023/09/07 10:13:02;;;;;;;;;;;;;;;23.87;53.19;101978.53;4172809;28;20527;-63
2023/09/07 10:15:04;;;;;;;;;;;;;;;23.88;53.19;101969.19;4172382;28;20446;-63
2023/09/07 10:17:08;;;;;;;;;;;;;;;23.89;52.92;101968.13;4172595;28;20554;-62
2023/09/07 10:19:17;;;;;;;;;;;;;;;23.91;52.73;101968.72;4171564;28;20033;-62
2023/09/07 10:21:19;;;;;;;;;;;;;;;23.91;52.97;101969.56;4172227;28;20028;-62
2023/09/07 10:23:22;;;;;;;;;;;;;;;23.92;52.92;101968.50;4172231;28;19971;-63
2023/09/07 10:25:24;;;;;;;;;;;;;;;23.94;52.46;101965.50;4172545;28;20024;-63
2023/09/07 10:27:26;;;;;;;;;;;;;;;23.95;52.33;101967.19;4172324;28;20438;-63
2023/09/07 10:29:28;;;;;;;;;;;;;;;23.97;52.29;101966.94;4172276;28;20359;-62